sensor_id;sensor_type;location;lat;lon;timestamp;P1;durP1;ratioP1;P2;durP2;ratioP2
14933;SDS011;7560;51.364;12.384;2023-03-14T00:04:49;0.90;;;0.90;;
14933;SDS011;7560;51.364;12.384;2023-03-14T00:09:51;1.10;;;0.85;;
14933;SDS011;7560;51.364;12.384;2023-03-14T00:14:53;2.42;;;0.90;;
14933;SDS011;7560;51.364;12.384;2023-03-14T00:19:54;1.38;;;0.98;;
14933;SDS011;7560;51.364;12.384;2023-03-14T00:24:56;2.00;;;0.90;;
14933;SDS011;7560;51.364;12.384;2023-03-14T00:29:58;1.58;;;0.90;;
14933;SDS011;7560;51.364;12.384;2023-03-14T00:35:00;2.13;;;1.02;;
14933;SDS011;7560;51.364;12.384;2023-03-14T00:40:02;0.77;;;0.75;;
14933;SDS011;7560;51.364;12.384;2023-03-14T00:45:07;0.98;;;0.75;;
14933;SDS011;7560;51.364;12.384;2023-03-14T00:50:10;2.60;;;0.70;;
14933;SDS011;7560;51.364;12.384;2023-03-14T00:55:12;0.85;;;0.70;;
14933;SDS011;7560;51.364;12.384;2023-03-14T01:00:14;1.15;;;0.80;;
14933;SDS011;7560;51.364;12.384;2023-03-14T01:05:16;0.98;;;0.80;;
14933;SDS011;7560;51.364;12.384;2023-03-14T01:10:17;0.73;;;0.73;;
14933;SDS011;7560;51.364;12.384;2023-03-14T01:15:19;0.80;;;0.80;;
14933;SDS011;7560;51.364;12.384;2023-03-14T01:20:21;0.68;;;0.68;;
14933;SDS011;7560;51.364;12.384;2023-03-14T01:25:23;0.70;;;0.70;;
14933;SDS011;7560;51.364;12.384;2023-03-14T01:30:25;0.63;;;0.60;;
14933;SDS011;7560;51.364;12.384;2023-03-14T01:35:27;1.05;;;0.80;;
14933;SDS011;7560;51.364;12.384;2023-03-14T01:40:28;1.05;;;0.77;;
14933;SDS011;7560;51.364;12.384;2023-03-14T01:51:07;0.77;;;0.70;;
14933;SDS011;7560;51.364;12.384;2023-03-14T01:56:12;3.80;;;0.70;;
14933;SDS011;7560;51.364;12.384;2023-03-14T02:01:17;0.45;;;0.45;;
14933;SDS011;7560;51.364;12.384;2023-03-14T02:06:22;1.50;;;0.63;;
14933;SDS011;7560;51.364;12.384;2023-03-14T02:11:28;1.00;;;0.70;;
14933;SDS011;7560;51.364;12.384;2023-03-14T02:16:31;1.65;;;0.88;;
14933;SDS011;7560;51.364;12.384;2023-03-14T02:21:49;0.70;;;0.70;;
14933;SDS011;7560;51.364;12.384;2023-03-14T02:32:09;0.73;;;0.70;;
14933;SDS011;7560;51.364;12.384;2023-03-14T02:37:12;1.60;;;0.80;;
14933;SDS011;7560;51.364;12.384;2023-03-14T02:42:16;0.70;;;0.70;;
14933;SDS011;7560;51.364;12.384;2023-03-14T02:47:18;0.70;;;0.60;;
14933;SDS011;7560;51.364;12.384;2023-03-14T02:52:23;1.02;;;0.65;;
14933;SDS011;7560;51.364;12.384;2023-03-14T02:57:25;0.88;;;0.63;;
14933;SDS011;7560;51.364;12.384;2023-03-14T03:02:27;0.55;;;0.55;;
14933;SDS011;7560;51.364;12.384;2023-03-14T03:07:29;0.85;;;0.60;;
14933;SDS011;7560;51.364;12.384;2023-03-14T03:12:31;1.23;;;0.52;;
14933;SDS011;7560;51.364;12.384;2023-03-14T03:17:32;0.50;;;0.50;;
14933;SDS011;7560;51.364;12.384;2023-03-14T03:22:35;0.93;;;0.60;;
14933;SDS011;7560;51.364;12.384;2023-03-14T03:27:37;0.93;;;0.80;;
14933;SDS011;7560;51.364;12.384;2023-03-14T03:32:39;1.02;;;0.73;;
14933;SDS011;7560;51.364;12.384;2023-03-14T03:37:41;1.27;;;0.88;;
14933;SDS011;7560;51.364;12.384;2023-03-14T03:42:43;1.65;;;0.90;;
14933;SDS011;7560;51.364;12.384;2023-03-14T03:47:44;0.95;;;0.80;;
14933;SDS011;7560;51.364;12.384;2023-03-14T03:52:46;0.60;;;0.60;;
14933;SDS011;7560;51.364;12.384;2023-03-14T03:57:48;2.20;;;0.90;;
14933;SDS011;7560;51.364;12.384;2023-03-14T04:02:49;1.85;;;1.38;;
14933;SDS011;7560;51.364;12.384;2023-03-14T04:07:51;0.63;;;0.60;;
14933;SDS011;7560;51.364;12.384;2023-03-14T04:12:53;1.08;;;0.60;;
14933;SDS011;7560;51.364;12.384;2023-03-14T04:17:58;2.00;;;0.80;;
14933;SDS011;7560;51.364;12.384;2023-03-14T04:23:00;1.17;;;0.90;;
14933;SDS011;7560;51.364;12.384;2023-03-14T04:28:01;2.00;;;0.82;;
14933;SDS011;7560;51.364;12.384;2023-03-14T04:33:05;1.10;;;0.85;;
14933;SDS011;7560;51.364;12.384;2023-03-14T04:38:06;1.65;;;0.90;;
14933;SDS011;7560;51.364;12.384;2023-03-14T04:43:08;2.13;;;1.00;;
14933;SDS011;7560;51.364;12.384;2023-03-14T04:48:12;1.52;;;0.90;;
14933;SDS011;7560;51.364;12.384;2023-03-14T04:53:14;2.17;;;0.73;;
14933;SDS011;7560;51.364;12.384;2023-03-14T04:58:17;3.08;;;1.00;;
14933;SDS011;7560;51.364;12.384;2023-03-14T05:03:19;1.73;;;0.82;;
14933;SDS011;7560;51.364;12.384;2023-03-14T05:08:21;2.80;;;0.88;;
14933;SDS011;7560;51.364;12.384;2023-03-14T05:13:23;3.88;;;1.30;;
14933;SDS011;7560;51.364;12.384;2023-03-14T05:18:25;1.95;;;0.80;;
14933;SDS011;7560;51.364;12.384;2023-03-14T05:23:27;3.03;;;0.80;;
14933;SDS011;7560;51.364;12.384;2023-03-14T05:28:29;2.35;;;0.90;;
14933;SDS011;7560;51.364;12.384;2023-03-14T05:33:31;1.95;;;1.40;;
14933;SDS011;7560;51.364;12.384;2023-03-14T05:38:33;2.95;;;1.05;;
14933;SDS011;7560;51.364;12.384;2023-03-14T05:43:34;1.73;;;1.20;;
14933;SDS011;7560;51.364;12.384;2023-03-14T05:48:36;3.38;;;1.55;;
14933;SDS011;7560;51.364;12.384;2023-03-14T05:53:38;5.18;;;1.65;;
14933;SDS011;7560;51.364;12.384;2023-03-14T05:58:40;2.97;;;1.60;;
14933;SDS011;7560;51.364;12.384;2023-03-14T06:03:42;7.25;;;1.30;;
14933;SDS011;7560;51.364;12.384;2023-03-14T06:08:43;8.95;;;4.82;;
14933;SDS011;7560;51.364;12.384;2023-03-14T06:13:45;4.57;;;2.10;;
14933;SDS011;7560;51.364;12.384;2023-03-14T06:18:47;4.03;;;1.30;;
14933;SDS011;7560;51.364;12.384;2023-03-14T06:23:50;2.78;;;1.13;;
14933;SDS011;7560;51.364;12.384;2023-03-14T06:28:51;3.60;;;1.30;;
14933;SDS011;7560;51.364;12.384;2023-03-14T06:33:54;1.88;;;1.10;;
14933;SDS011;7560;51.364;12.384;2023-03-14T06:38:56;2.50;;;1.05;;
14933;SDS011;7560;51.364;12.384;2023-03-14T06:43:58;4.00;;;1.50;;
14933;SDS011;7560;51.364;12.384;2023-03-14T06:49:00;1.38;;;0.90;;
14933;SDS011;7560;51.364;12.384;2023-03-14T06:54:01;1.95;;;1.08;;
14933;SDS011;7560;51.364;12.384;2023-03-14T06:59:03;2.03;;;1.10;;
14933;SDS011;7560;51.364;12.384;2023-03-14T07:04:05;2.03;;;0.85;;
14933;SDS011;7560;51.364;12.384;2023-03-14T07:09:07;3.47;;;0.80;;
14933;SDS011;7560;51.364;12.384;2023-03-14T07:14:09;2.05;;;0.90;;
14933;SDS011;7560;51.364;12.384;2023-03-14T07:19:11;2.95;;;1.10;;
14933;SDS011;7560;51.364;12.384;2023-03-14T07:24:13;5.18;;;1.50;;
14933;SDS011;7560;51.364;12.384;2023-03-14T07:29:15;2.08;;;1.10;;
14933;SDS011;7560;51.364;12.384;2023-03-14T07:34:17;1.40;;;0.85;;
14933;SDS011;7560;51.364;12.384;2023-03-14T07:39:20;1.88;;;0.88;;
14933;SDS011;7560;51.364;12.384;2023-03-14T07:44:22;3.13;;;1.08;;
14933;SDS011;7560;51.364;12.384;2023-03-14T07:49:24;2.08;;;0.90;;
14933;SDS011;7560;51.364;12.384;2023-03-14T07:54:25;4.65;;;1.27;;
14933;SDS011;7560;51.364;12.384;2023-03-14T07:59:27;2.67;;;0.93;;
14933;SDS011;7560;51.364;12.384;2023-03-14T08:04:29;1.33;;;1.00;;
14933;SDS011;7560;51.364;12.384;2023-03-14T08:09:31;2.33;;;0.90;;
14933;SDS011;7560;51.364;12.384;2023-03-14T08:14:33;3.00;;;1.10;;
14933;SDS011;7560;51.364;12.384;2023-03-14T08:19:35;3.80;;;1.20;;
14933;SDS011;7560;51.364;12.384;2023-03-14T08:24:37;1.50;;;0.77;;
14933;SDS011;7560;51.364;12.384;2023-03-14T08:29:38;5.82;;;1.15;;
14933;SDS011;7560;51.364;12.384;2023-03-14T08:34:42;5.15;;;1.58;;
14933;SDS011;7560;51.364;12.384;2023-03-14T08:39:44;2.65;;;1.40;;
14933;SDS011;7560;51.364;12.384;2023-03-14T08:44:46;1.40;;;0.95;;
14933;SDS011;7560;51.364;12.384;2023-03-14T08:49:48;2.45;;;1.00;;
14933;SDS011;7560;51.364;12.384;2023-03-14T08:54:50;2.17;;;0.90;;
14933;SDS011;7560;51.364;12.384;2023-03-14T08:59:51;2.15;;;0.70;;
14933;SDS011;7560;51.364;12.384;2023-03-14T09:04:53;1.85;;;0.90;;
14933;SDS011;7560;51.364;12.384;2023-03-14T09:09:55;3.58;;;1.10;;
14933;SDS011;7560;51.364;12.384;2023-03-14T09:14:57;1.80;;;0.70;;
14933;SDS011;7560;51.364;12.384;2023-03-14T09:19:58;3.60;;;0.95;;
14933;SDS011;7560;51.364;12.384;2023-03-14T09:25:01;2.17;;;0.80;;
14933;SDS011;7560;51.364;12.384;2023-03-14T09:30:04;3.13;;;0.70;;
14933;SDS011;7560;51.364;12.384;2023-03-14T09:35:06;2.50;;;0.70;;
14933;SDS011;7560;51.364;12.384;2023-03-14T09:40:11;4.00;;;0.77;;
14933;SDS011;7560;51.364;12.384;2023-03-14T09:45:23;2.17;;;0.55;;
14933;SDS011;7560;51.364;12.384;2023-03-14T09:50:31;1.98;;;0.55;;
14933;SDS011;7560;51.364;12.384;2023-03-14T09:55:40;2.72;;;0.82;;
14933;SDS011;7560;51.364;12.384;2023-03-14T10:00:44;1.80;;;0.77;;
14933;SDS011;7560;51.364;12.384;2023-03-14T10:05:45;1.75;;;0.50;;
14933;SDS011;7560;51.364;12.384;2023-03-14T10:10:47;2.70;;;0.70;;
14933;SDS011;7560;51.364;12.384;2023-03-14T10:15:58;2.00;;;1.10;;
14933;SDS011;7560;51.364;12.384;2023-03-14T10:26:27;1.13;;;0.63;;
14933;SDS011;7560;51.364;12.384;2023-03-14T10:31:29;1.73;;;0.52;;
14933;SDS011;7560;51.364;12.384;2023-03-14T10:42:26;1.35;;;0.47;;
14933;SDS011;7560;51.364;12.384;2023-03-14T10:47:35;1.85;;;1.15;;
14933;SDS011;7560;51.364;12.384;2023-03-14T10:52:37;1.85;;;0.60;;
14933;SDS011;7560;51.364;12.384;2023-03-14T10:58:02;2.53;;;0.50;;
14933;SDS011;7560;51.364;12.384;2023-03-14T11:03:11;1.27;;;0.65;;
14933;SDS011;7560;51.364;12.384;2023-03-14T11:08:23;1.20;;;0.50;;
14933;SDS011;7560;51.364;12.384;2023-03-14T11:13:30;1.75;;;0.38;;
14933;SDS011;7560;51.364;12.384;2023-03-14T11:30:00;2.35;;;0.50;;
14933;SDS011;7560;51.364;12.384;2023-03-14T11:35:30;0.75;;;0.60;;
14933;SDS011;7560;51.364;12.384;2023-03-14T11:40:37;1.08;;;0.43;;
14933;SDS011;7560;51.364;12.384;2023-03-14T11:45:41;1.48;;;0.47;;
14933;SDS011;7560;51.364;12.384;2023-03-14T11:50:44;0.65;;;0.40;;
14933;SDS011;7560;51.364;12.384;2023-03-14T11:55:50;0.98;;;0.57;;
14933;SDS011;7560;51.364;12.384;2023-03-14T12:00:53;0.40;;;0.40;;
14933;SDS011;7560;51.364;12.384;2023-03-14T12:16:30;4.85;;;0.60;;
14933;SDS011;7560;51.364;12.384;2023-03-14T12:21:45;3.72;;;0.68;;
14933;SDS011;7560;51.364;12.384;2023-03-14T12:26:53;0.30;;;0.30;;
14933;SDS011;7560;51.364;12.384;2023-03-14T12:32:12;0.50;;;0.40;;
14933;SDS011;7560;51.364;12.384;2023-03-14T12:58:20;1.50;;;1.00;;
14933;SDS011;7560;51.364;12.384;2023-03-14T13:03:43;0.93;;;0.70;;
14933;SDS011;7560;51.364;12.384;2023-03-14T13:08:48;1.75;;;0.88;;
14933;SDS011;7560;51.364;12.384;2023-03-14T13:13:57;1.65;;;0.60;;
14933;SDS011;7560;51.364;12.384;2023-03-14T13:19:00;1.42;;;0.60;;
14933;SDS011;7560;51.364;12.384;2023-03-14T13:24:27;0.93;;;0.38;;
14933;SDS011;7560;51.364;12.384;2023-03-14T13:29:29;0.70;;;0.43;;
14933;SDS011;7560;51.364;12.384;2023-03-14T13:34:34;1.02;;;0.50;;
14933;SDS011;7560;51.364;12.384;2023-03-14T13:39:37;2.63;;;1.13;;
14933;SDS011;7560;51.364;12.384;2023-03-14T13:44:41;1.85;;;0.70;;
14933;SDS011;7560;51.364;12.384;2023-03-14T13:49:43;0.30;;;0.22;;
14933;SDS011;7560;51.364;12.384;2023-03-14T13:54:46;0.30;;;0.30;;
14933;SDS011;7560;51.364;12.384;2023-03-14T14:00:00;3.22;;;0.70;;
14933;SDS011;7560;51.364;12.384;2023-03-14T14:05:11;2.15;;;0.50;;
14933;SDS011;7560;51.364;12.384;2023-03-14T14:10:13;1.73;;;0.57;;
14933;SDS011;7560;51.364;12.384;2023-03-14T14:15:39;0.52;;;0.40;;
14933;SDS011;7560;51.364;12.384;2023-03-14T14:20:44;1.85;;;0.40;;
14933;SDS011;7560;51.364;12.384;2023-03-14T14:25:48;1.45;;;0.52;;
14933;SDS011;7560;51.364;12.384;2023-03-14T14:36:14;1.25;;;0.55;;
14933;SDS011;7560;51.364;12.384;2023-03-14T14:41:28;1.70;;;0.60;;
14933;SDS011;7560;51.364;12.384;2023-03-14T14:46:33;1.17;;;0.40;;
14933;SDS011;7560;51.364;12.384;2023-03-14T14:51:49;0.82;;;0.40;;
14933;SDS011;7560;51.364;12.384;2023-03-14T14:56:52;1.75;;;0.43;;
14933;SDS011;7560;51.364;12.384;2023-03-14T15:01:58;0.40;;;0.40;;
14933;SDS011;7560;51.364;12.384;2023-03-14T15:07:01;1.60;;;0.60;;
14933;SDS011;7560;51.364;12.384;2023-03-14T15:12:04;1.52;;;0.57;;
14933;SDS011;7560;51.364;12.384;2023-03-14T15:17:08;2.10;;;0.70;;
14933;SDS011;7560;51.364;12.384;2023-03-14T15:22:12;4.72;;;1.17;;
14933;SDS011;7560;51.364;12.384;2023-03-14T15:27:17;1.30;;;0.98;;
14933;SDS011;7560;51.364;12.384;2023-03-14T15:32:19;1.00;;;0.88;;
14933;SDS011;7560;51.364;12.384;2023-03-14T15:37:21;1.30;;;0.90;;
14933;SDS011;7560;51.364;12.384;2023-03-14T15:42:23;0.60;;;0.60;;
14933;SDS011;7560;51.364;12.384;2023-03-14T15:47:25;1.00;;;0.60;;
14933;SDS011;7560;51.364;12.384;2023-03-14T15:52:28;0.75;;;0.75;;
14933;SDS011;7560;51.364;12.384;2023-03-14T15:57:30;0.68;;;0.68;;
14933;SDS011;7560;51.364;12.384;2023-03-14T16:02:32;2.38;;;0.82;;
14933;SDS011;7560;51.364;12.384;2023-03-14T16:07:34;0.80;;;0.80;;
14933;SDS011;7560;51.364;12.384;2023-03-14T16:12:35;0.60;;;0.60;;
14933;SDS011;7560;51.364;12.384;2023-03-14T16:17:37;2.33;;;0.85;;
14933;SDS011;7560;51.364;12.384;2023-03-14T16:22:41;1.23;;;0.95;;
14933;SDS011;7560;51.364;12.384;2023-03-14T16:27:43;1.30;;;1.20;;
14933;SDS011;7560;51.364;12.384;2023-03-14T16:32:45;0.98;;;0.80;;
14933;SDS011;7560;51.364;12.384;2023-03-14T16:37:48;1.33;;;1.02;;
14933;SDS011;7560;51.364;12.384;2023-03-14T16:42:50;4.85;;;1.90;;
14933;SDS011;7560;51.364;12.384;2023-03-14T16:48:11;7.80;;;2.40;;
14933;SDS011;7560;51.364;12.384;2023-03-14T16:53:13;4.40;;;1.80;;
14933;SDS011;7560;51.364;12.384;2023-03-14T16:58:15;3.90;;;1.73;;
14933;SDS011;7560;51.364;12.384;2023-03-14T17:03:17;6.50;;;1.73;;
14933;SDS011;7560;51.364;12.384;2023-03-14T17:08:20;7.15;;;2.70;;
14933;SDS011;7560;51.364;12.384;2023-03-14T17:13:22;4.28;;;2.95;;
14933;SDS011;7560;51.364;12.384;2023-03-14T17:18:26;9.65;;;2.92;;
14933;SDS011;7560;51.364;12.384;2023-03-14T17:23:29;6.88;;;2.40;;
14933;SDS011;7560;51.364;12.384;2023-03-14T17:28:33;9.90;;;2.38;;
14933;SDS011;7560;51.364;12.384;2023-03-14T17:33:38;18.92;;;2.80;;
14933;SDS011;7560;51.364;12.384;2023-03-14T17:38:40;7.75;;;3.10;;
14933;SDS011;7560;51.364;12.384;2023-03-14T17:43:41;11.27;;;4.10;;
14933;SDS011;7560;51.364;12.384;2023-03-14T17:48:44;8.77;;;3.25;;
14933;SDS011;7560;51.364;12.384;2023-03-14T17:53:47;10.50;;;3.38;;
14933;SDS011;7560;51.364;12.384;2023-03-14T17:58:49;8.55;;;2.70;;
14933;SDS011;7560;51.364;12.384;2023-03-14T18:03:52;5.30;;;2.95;;
14933;SDS011;7560;51.364;12.384;2023-03-14T18:08:57;11.13;;;2.80;;
14933;SDS011;7560;51.364;12.384;2023-03-14T18:14:00;12.10;;;2.72;;
14933;SDS011;7560;51.364;12.384;2023-03-14T18:19:03;11.15;;;2.58;;
14933;SDS011;7560;51.364;12.384;2023-03-14T18:24:05;9.68;;;2.63;;
14933;SDS011;7560;51.364;12.384;2023-03-14T18:29:07;7.68;;;2.47;;
14933;SDS011;7560;51.364;12.384;2023-03-14T18:34:10;6.22;;;2.00;;
14933;SDS011;7560;51.364;12.384;2023-03-14T18:39:12;6.97;;;2.15;;
14933;SDS011;7560;51.364;12.384;2023-03-14T18:44:13;9.20;;;2.33;;
14933;SDS011;7560;51.364;12.384;2023-03-14T18:49:15;8.93;;;2.00;;
14933;SDS011;7560;51.364;12.384;2023-03-14T18:54:19;15.70;;;3.08;;
14933;SDS011;7560;51.364;12.384;2023-03-14T18:59:21;11.55;;;2.30;;
14933;SDS011;7560;51.364;12.384;2023-03-14T19:04:22;10.82;;;3.25;;
14933;SDS011;7560;51.364;12.384;2023-03-14T19:09:24;8.32;;;2.50;;
14933;SDS011;7560;51.364;12.384;2023-03-14T19:14:26;10.27;;;2.55;;
14933;SDS011;7560;51.364;12.384;2023-03-14T19:19:28;11.48;;;3.55;;
14933;SDS011;7560;51.364;12.384;2023-03-14T19:24:30;9.15;;;3.10;;
14933;SDS011;7560;51.364;12.384;2023-03-14T19:29:31;14.13;;;3.35;;
14933;SDS011;7560;51.364;12.384;2023-03-14T19:34:39;8.02;;;2.60;;
14933;SDS011;7560;51.364;12.384;2023-03-14T19:39:44;12.38;;;2.78;;
14933;SDS011;7560;51.364;12.384;2023-03-14T19:44:47;7.18;;;2.78;;
14933;SDS011;7560;51.364;12.384;2023-03-14T19:49:49;8.52;;;2.85;;
14933;SDS011;7560;51.364;12.384;2023-03-14T19:54:51;10.88;;;3.28;;
14933;SDS011;7560;51.364;12.384;2023-03-14T19:59:54;11.70;;;3.28;;
14933;SDS011;7560;51.364;12.384;2023-03-14T20:04:59;9.80;;;3.08;;
14933;SDS011;7560;51.364;12.384;2023-03-14T20:10:02;13.35;;;3.17;;
14933;SDS011;7560;51.364;12.384;2023-03-14T20:15:04;8.30;;;3.20;;
14933;SDS011;7560;51.364;12.384;2023-03-14T20:20:07;8.57;;;3.28;;
14933;SDS011;7560;51.364;12.384;2023-03-14T20:25:11;11.73;;;2.90;;
14933;SDS011;7560;51.364;12.384;2023-03-14T20:30:15;14.48;;;2.88;;
14933;SDS011;7560;51.364;12.384;2023-03-14T20:35:32;16.52;;;3.35;;
14933;SDS011;7560;51.364;12.384;2023-03-14T20:40:36;13.95;;;2.92;;
14933;SDS011;7560;51.364;12.384;2023-03-14T20:45:37;18.25;;;3.65;;
14933;SDS011;7560;51.364;12.384;2023-03-14T20:50:39;13.60;;;2.55;;
14933;SDS011;7560;51.364;12.384;2023-03-14T20:55:41;5.18;;;2.35;;
14933;SDS011;7560;51.364;12.384;2023-03-14T21:00:47;8.48;;;2.72;;
14933;SDS011;7560;51.364;12.384;2023-03-14T21:05:50;11.43;;;2.47;;
14933;SDS011;7560;51.364;12.384;2023-03-14T21:10:53;6.20;;;2.55;;
14933;SDS011;7560;51.364;12.384;2023-03-14T21:15:59;8.55;;;2.22;;
14933;SDS011;7560;51.364;12.384;2023-03-14T21:21:02;5.53;;;1.88;;
14933;SDS011;7560;51.364;12.384;2023-03-14T21:26:04;8.30;;;1.85;;
14933;SDS011;7560;51.364;12.384;2023-03-14T21:31:06;6.60;;;1.80;;
14933;SDS011;7560;51.364;12.384;2023-03-14T21:36:13;6.65;;;2.00;;
14933;SDS011;7560;51.364;12.384;2023-03-14T21:41:15;5.78;;;2.25;;
14933;SDS011;7560;51.364;12.384;2023-03-14T21:46:17;6.55;;;1.70;;
14933;SDS011;7560;51.364;12.384;2023-03-14T21:51:19;5.75;;;1.70;;
14933;SDS011;7560;51.364;12.384;2023-03-14T21:56:21;4.30;;;1.48;;
14933;SDS011;7560;51.364;12.384;2023-03-14T22:01:27;10.40;;;1.98;;
14933;SDS011;7560;51.364;12.384;2023-03-14T22:06:28;5.40;;;1.73;;
14933;SDS011;7560;51.364;12.384;2023-03-14T22:11:30;6.30;;;1.30;;
14933;SDS011;7560;51.364;12.384;2023-03-14T22:16:32;5.22;;;1.63;;
14933;SDS011;7560;51.364;12.384;2023-03-14T22:21:34;5.15;;;1.67;;
14933;SDS011;7560;51.364;12.384;2023-03-14T22:26:36;9.02;;;1.73;;
14933;SDS011;7560;51.364;12.384;2023-03-14T22:31:38;9.73;;;2.17;;
14933;SDS011;7560;51.364;12.384;2023-03-14T22:36:40;7.63;;;2.10;;
14933;SDS011;7560;51.364;12.384;2023-03-14T22:41:42;5.25;;;2.03;;
14933;SDS011;7560;51.364;12.384;2023-03-14T22:46:43;9.23;;;1.80;;
14933;SDS011;7560;51.364;12.384;2023-03-14T22:51:45;4.97;;;1.45;;
14933;SDS011;7560;51.364;12.384;2023-03-14T22:56:47;4.82;;;1.58;;
14933;SDS011;7560;51.364;12.384;2023-03-14T23:01:49;8.10;;;1.88;;
14933;SDS011;7560;51.364;12.384;2023-03-14T23:06:51;7.20;;;1.38;;
14933;SDS011;7560;51.364;12.384;2023-03-14T23:11:53;4.88;;;1.20;;
14933;SDS011;7560;51.364;12.384;2023-03-14T23:16:55;6.75;;;1.88;;
14933;SDS011;7560;51.364;12.384;2023-03-14T23:21:57;5.82;;;1.58;;
14933;SDS011;7560;51.364;12.384;2023-03-14T23:26:58;6.45;;;1.50;;
14933;SDS011;7560;51.364;12.384;2023-03-14T23:32:00;6.47;;;1.60;;
14933;SDS011;7560;51.364;12.384;2023-03-14T23:37:02;3.75;;;1.20;;
14933;SDS011;7560;51.364;12.384;2023-03-14T23:42:05;5.35;;;1.52;;
14933;SDS011;7560;51.364;12.384;2023-03-14T23:47:07;6.30;;;1.60;;
14933;SDS011;7560;51.364;12.384;2023-03-14T23:52:09;5.53;;;1.38;;
14933;SDS011;7560;51.364;12.384;2023-03-14T23:57:11;4.20;;;1.33;;
